ADDS METAR Data INFO
IDs: Format: Raw Decoded Include TAF

Data at: 1413 UTC 12 Dec 2017

KSCF 121355Z AUTO 33014G21KT 10SM CLR 15/05 A3022 RMK A01
KSCF 121335Z AUTO 32015G22KT 10SM CLR 15/05 A3021 RMK A01
KSCF 121315Z AUTO 33021KT 10SM CLR 15/06 A3020 RMK A01
KSCF 121255Z AUTO 32022KT 10SM CLR 16/07 A3019 RMK A01
KSCF 121235Z AUTO 31024G32KT 10SM CLR 16/08 A3018 RMK A01
KSCF 121215Z AUTO 30023KT 10SM CLR 17/11 A3018 RMK A01
KSCF 121155Z AUTO 29025KT 10SM CLR 17/10 A3017 RMK A01
KSCF 121135Z AUTO 29021KT 10SM CLR 17/12 A3016 RMK A01
KSCF 121115Z AUTO 29020KT 10SM CLR 17/13 A3016 RMK A01
KSCF 121055Z AUTO 28017KT 10SM CLR 17/13 A3015 RMK A01
KSCF 121035Z AUTO 27018KT 10SM CLR 17/13 A3015 RMK A01
KSCF 121015Z AUTO 27018KT 10SM CLR 17/13 A3015 RMK A01
KSCF 120955Z AUTO 27016KT 10SM CLR 17/13 A3015 RMK A01
KSCF 120935Z AUTO 27016KT 10SM CLR 17/13 A3016 RMK A01
KSCF 120915Z AUTO 27017KT 10SM CLR 17/13 A3016 RMK A01
KSCF 120855Z AUTO 26015KT 10SM CLR 17/13 A3016 RMK A01
KSCF 120835Z AUTO 26016KT 10SM CLR 17/13 A3016 RMK A01
KSCF 120815Z AUTO 26014KT 10SM CLR 17/13 A3016 RMK A01
KSCF 120755Z AUTO 27014KT 10SM CLR 17/13 A3016 RMK A01
KSCF 120735Z AUTO 27012KT 10SM CLR 17/13 A3016 RMK A01
KSCF 120715Z AUTO 26012KT 10SM CLR 17/14 A3016 RMK A01
KSCF 120655Z AUTO 25012KT 10SM CLR 16/14 A3016 RMK A01
KSCF 120635Z AUTO 25013KT 10SM CLR 16/14 A3016 RMK A01
KSCF 120615Z AUTO 25013KT 10SM CLR 16/13 A3017 RMK A01
KSCF 120555Z AUTO 25014KT 10SM CLR 16/13 A3017 RMK A01
KSCF 120535Z AUTO 26012KT 10SM CLR 16/13 A3018 RMK A01
KSCF 120515Z AUTO 26012KT 10SM CLR 16/13 A3019 RMK A01
KSCF 120455Z AUTO 26011KT 10SM CLR 16/13 A3020 RMK A01
KSCF 120435Z AUTO 26011KT 10SM CLR 16/13 A3021 RMK A01
KSCF 120415Z AUTO 26012KT CLR 16/13 A3021 RMK A01
KSCF 120355Z AUTO 26012KT 10SM CLR 16/13 A3021 RMK A01
KSCF 120335Z AUTO 26012KT 10SM CLR 16/13 A3021 RMK A01
KSCF 120315Z AUTO 25013KT 10SM CLR 16/13 A3021 RMK A01
KSCF 120255Z AUTO 24014KT 10SM CLR 16/12 A3021 RMK A01
KSCF 120235Z AUTO 25013KT 10SM CLR 16/12 A3022 RMK A01
KSCF 120215Z AUTO 25013KT 10SM CLR 16/12 A3022 RMK A01
KSCF 120155Z AUTO 25011KT 10SM CLR 16/12 A3022 RMK A01
KSCF 120135Z AUTO 25012KT 10SM CLR 16/12 A3021 RMK A01
KSCF 120115Z AUTO 24012KT 10SM CLR 16/12 A3021 RMK A01
KSCF 120055Z AUTO 24011KT 10SM CLR 16/12 A3021 RMK A01
KSCF 120035Z AUTO 24010KT 10SM CLR 16/12 A3021 RMK A01
KSCF 120015Z AUTO 24011KT 10SM CLR 16/12 A3021 RMK A01
KSCF 112355Z AUTO 24011KT 10SM CLR 16/12 A3021 RMK A01
KSCF 112335Z AUTO 23008KT 10SM CLR 15/12 A3021 RMK A01
KSCF 112315Z AUTO 24010KT 10SM CLR 16/12 A3021 RMK A01
KSCF 112255Z AUTO 23008KT 10SM CLR 16/12 A3021 RMK A01
KSCF 112235Z AUTO 23008KT 10SM CLR 16/11 A3022 RMK A01
KSCF 112215Z AUTO 23007KT 10SM CLR 16/11 A3022 RMK A01
KSCF 112155Z AUTO 23005KT 10SM CLR 16/11 A3022 RMK A01
KSCF 112135Z AUTO 23006KT 10SM CLR 16/11 A3022 RMK A01
KSCF 112115Z AUTO 23009KT 10SM CLR 16/11 A3023 RMK A01
KSCF 112055Z AUTO 23008KT 10SM CLR 16/11 A3023 RMK A01
KSCF 112035Z AUTO 23009KT 10SM CLR 16/11 A3024 RMK A01
KSCF 112015Z AUTO 23006KT 10SM CLR 16/11 A3025 RMK A01
KSCF 111955Z AUTO 23006KT 10SM CLR 16/11 A3025 RMK A01
KSCF 111935Z AUTO 23007KT 10SM CLR 16/11 A3026 RMK A01
KSCF 111915Z AUTO 23007KT 10SM CLR 16/11 A3026 RMK A01
KSCF 111855Z AUTO 24008KT 10SM CLR 16/10 A3027 RMK A01
KSCF 111835Z AUTO 23007KT 10SM CLR 16/10 A3028 RMK A01
KSCF 111815Z AUTO 23005KT 10SM CLR 16/10 A3029 RMK A01
KSCF 111755Z AUTO 23004KT 10SM CLR 16/10 A3030 RMK A01
KSCF 111735Z AUTO VRB03KT 10SM CLR 16/10 A3032 RMK A01
KSCF 111715Z AUTO 22004KT 10SM CLR 16/09 A3033 RMK A01
KSCF 111655Z AUTO 22003KT 10SM CLR 16/10 A3034 RMK A01
KSCF 111635Z AUTO 22003KT 10SM CLR 16/10 A3034 RMK A01
KSCF 111615Z AUTO 00000KT 10SM CLR 16/10 A3035 RMK A01
KSCF 111555Z AUTO 00000KT 10SM CLR 15/11 A3036 RMK A01
KSCF 111535Z AUTO 23003KT 10SM CLR 15/10 A3037 RMK A01
KSCF 111515Z AUTO 23005KT 10SM CLR 15/10 A3037 RMK A01
KSCF 111455Z AUTO 24006KT 10SM CLR 15/09 A3037 RMK A01
KSCF 111435Z AUTO 23006KT 10SM CLR 15/09 A3037 RMK A01
KSCF 111415Z AUTO 23006KT 10SM CLR 15/10 A3036 RMK A01
KSCF 111355Z AUTO 24007KT 10SM CLR 15/09 A3037 RMK A01
KSCF 111335Z AUTO 25008KT 10SM CLR 14/09 A3037 RMK A01
KSCF 111315Z AUTO 25007KT 10SM CLR 14/09 A3036 RMK A01
KSCF 111255Z AUTO 25006KT 10SM CLR 14/09 A3036 RMK A01
KSCF 111230Z AUTO 24005KT 10SM CLR 14/09 A3035 RMK A01
KSCF 111215Z AUTO 27006KT 10SM CLR 14/09 A3035 RMK A01
KSCF 111155Z AUTO 28007KT 10SM CLR 14/09 A3035 RMK A01
KSCF 111135Z AUTO 28006KT 10SM CLR 14/08 A3034 RMK A01
KSCF 111115Z AUTO 28006KT CLR 14/08 A3034 RMK A01
KSCF 111055Z AUTO 30007KT 10SM CLR 14/07 A3034 RMK A01
KSCF 111035Z AUTO 30008KT 10SM CLR 14/07 A3034 RMK A01
KSCF 111015Z AUTO 30010KT 10SM CLR 14/07 A3035 RMK A01
KSCF 110955Z AUTO 30009KT 10SM CLR 14/07 A3035 RMK A01
KSCF 110935Z AUTO 30011KT 10SM CLR 14/07 A3035 RMK A01
KSCF 110915Z AUTO 30009KT 10SM CLR 14/07 A3035 RMK A01
KSCF 110855Z AUTO 30010KT 10SM CLR 14/07 A3035 RMK A01
KSCF 110835Z AUTO 30010KT 10SM CLR 14/08 A3035 RMK A01
KSCF 110815Z AUTO 30009KT 10SM CLR 14/07 A3035 RMK A01
KSCF 110755Z AUTO 30009KT 10SM CLR 14/07 A3035 RMK A01
KSCF 110735Z AUTO 30009KT 10SM CLR 14/07 A3035 RMK A01
KSCF 110715Z AUTO 29008KT 10SM CLR 14/07 A3035 RMK A01
KSCF 110655Z AUTO 29008KT 10SM CLR 14/06 A3036 RMK A01
KSCF 110635Z AUTO 29007KT 10SM CLR 14/06 A3036 RMK A01
KSCF 110615Z AUTO 30008KT 10SM CLR 14/06 A3037 RMK A01
KSCF 110555Z AUTO 30009KT 10SM CLR 14/06 A3038 RMK A01
KSCF 110535Z AUTO 29009KT 10SM CLR 14/05 A3038 RMK A01
KSCF 110515Z AUTO 28008KT 10SM CLR 14/05 A3038 RMK A01
KSCF 110455Z AUTO 29009KT 10SM CLR 14/05 A3039 RMK A01
KSCF 110435Z AUTO 28007KT 10SM CLR 14/06 A3040 RMK A01
KSCF 110415Z AUTO 28008KT 10SM CLR 14/05 A3040 RMK A01
KSCF 110355Z AUTO 29010KT 10SM CLR 14/04 A3040 RMK A01
KSCF 110335Z AUTO 28010KT 10SM CLR 14/03 A3040 RMK A01
KSCF 110315Z AUTO 27011KT 10SM CLR 14/03 A3040 RMK A01
KSCF 110255Z AUTO 27010KT 10SM CLR 14/04 A3040 RMK A01
KSCF 110235Z AUTO 27011KT 10SM CLR 13/04 A3040 RMK A01
KSCF 110215Z AUTO 25010KT 10SM CLR 13/05 A3041 RMK A01